createdAt,value
2024-01-16T00:01:44.878Z,2.23
2024-01-16T00:04:12.069Z,2.25
2024-01-16T00:06:44.406Z,2.24
2024-01-16T00:09:12.491Z,2.15
2024-01-16T00:11:43.109Z,2.26
2024-01-16T00:14:09.899Z,2.02
2024-01-16T00:16:46.596Z,2.14
2024-01-16T00:19:13.540Z,1.95
2024-01-16T00:21:47.561Z,1.76
2024-01-16T00:24:15.012Z,2.05
2024-01-16T00:26:41.507Z,1.92
2024-01-16T00:29:09.638Z,2.20
2024-01-16T00:31:36.060Z,2.50
2024-01-16T00:34:03.828Z,2.53
2024-01-16T00:36:31.014Z,2.48
2024-01-16T00:38:57.686Z,2.06
2024-01-16T00:41:24.049Z,1.82
2024-01-16T00:43:51.019Z,1.95
2024-01-16T00:46:17.414Z,2.00
2024-01-16T00:48:44.240Z,2.06
2024-01-16T00:51:10.730Z,2.10
2024-01-16T00:53:44.217Z,2.13
2024-01-16T00:56:13.036Z,2.05
2024-01-16T00:58:39.878Z,2.16
2024-01-16T01:01:06.695Z,2.42
2024-01-16T01:03:33.479Z,2.25
2024-01-16T01:06:01.822Z,2.31
2024-01-16T01:08:28.863Z,2.30
2024-01-16T01:10:55.380Z,2.29
2024-01-16T01:13:22.957Z,2.35
2024-01-16T01:15:49.423Z,2.53
2024-01-16T01:18:16.261Z,2.52
2024-01-16T01:20:42.958Z,2.62
2024-01-16T01:23:10.627Z,2.68
2024-01-16T01:25:37.251Z,2.70
2024-01-16T01:28:04.430Z,2.78
2024-01-16T01:30:30.961Z,2.79
2024-01-16T01:32:57.762Z,2.56
2024-01-16T01:35:24.419Z,2.66
2024-01-16T01:37:51.806Z,2.63
2024-01-16T01:40:18.554Z,2.66
2024-01-16T01:42:45.210Z,2.86
2024-01-16T01:45:12.131Z,2.83
2024-01-16T01:47:40.447Z,2.85
2024-01-16T01:50:08.562Z,2.85
2024-01-16T01:52:37.885Z,2.78
2024-01-16T01:55:06.414Z,2.74
2024-01-16T01:57:34.724Z,2.85
2024-01-16T02:00:01.995Z,2.80
2024-01-16T02:02:42.026Z,2.76
2024-01-16T02:05:08.700Z,2.80
2024-01-16T02:07:36.222Z,2.85
2024-01-16T02:10:03.123Z,2.78
2024-01-16T02:12:30.488Z,2.67
2024-01-16T02:14:56.805Z,2.66
2024-01-16T02:17:23.547Z,2.49
2024-01-16T02:19:49.929Z,2.48
2024-01-16T02:22:21.854Z,2.55
2024-01-16T02:24:49.305Z,2.46
2024-01-16T02:27:16.056Z,2.54
2024-01-16T02:29:45.859Z,2.52
2024-01-16T02:32:13.421Z,2.37
2024-01-16T02:34:39.824Z,2.48
2024-01-16T02:37:06.496Z,2.54
2024-01-16T02:39:33.215Z,2.72
2024-01-16T02:41:59.943Z,2.72
2024-01-16T02:44:26.361Z,2.92
2024-01-16T02:46:53.192Z,3.16
2024-01-16T02:49:19.644Z,3.03
2024-01-16T02:51:46.366Z,2.84
2024-01-16T02:54:12.815Z,2.89
2024-01-16T02:56:39.847Z,2.79
2024-01-16T02:59:06.318Z,2.61
2024-01-16T03:01:33.555Z,2.75
2024-01-16T03:03:59.996Z,2.65
2024-01-16T03:06:26.925Z,2.72
2024-01-16T03:08:54.051Z,2.77
2024-01-16T03:11:20.908Z,2.79
2024-01-16T03:13:49.117Z,2.67
2024-01-16T03:16:16.304Z,2.58
2024-01-16T03:18:42.787Z,2.73
2024-01-16T03:21:11.101Z,2.59
2024-01-16T03:23:37.602Z,2.71
2024-01-16T03:26:04.649Z,2.74
2024-01-16T03:28:31.195Z,2.76
2024-01-16T03:30:57.974Z,2.71
2024-01-16T03:33:24.725Z,2.91
2024-01-16T03:35:51.533Z,2.98
2024-01-16T03:38:17.956Z,2.98
2024-01-16T03:40:44.819Z,2.78
2024-01-16T03:43:11.209Z,2.92
2024-01-16T03:45:37.960Z,2.77
2024-01-16T03:48:05.609Z,2.54
2024-01-16T03:50:34.177Z,2.61
2024-01-16T03:53:00.608Z,2.71
2024-01-16T03:55:27.303Z,2.52
2024-01-16T03:57:53.752Z,2.45
2024-01-16T04:00:20.470Z,2.75
2024-01-16T04:02:46.906Z,3.09
2024-01-16T04:05:14.050Z,3.14
2024-01-16T04:07:40.591Z,3.27
2024-01-16T04:10:07.877Z,3.17
2024-01-16T04:12:34.263Z,3.23
2024-01-16T04:15:00.861Z,3.10
2024-01-16T04:17:27.477Z,2.82
2024-01-16T04:19:54.137Z,3.05
2024-01-16T04:22:20.439Z,2.80
2024-01-16T04:24:48.110Z,2.78
2024-01-16T04:27:14.462Z,2.50
2024-01-16T04:29:41.419Z,2.47
2024-01-16T04:32:08.541Z,2.31
2024-01-16T04:34:35.298Z,2.26
2024-01-16T04:37:01.647Z,2.48
2024-01-16T04:39:28.428Z,2.31
2024-01-16T04:41:54.983Z,2.15
2024-01-16T04:44:21.743Z,2.25
2024-01-16T04:46:48.138Z,2.18
2024-01-16T04:49:14.994Z,2.45
2024-01-16T04:51:41.497Z,2.48
2024-01-16T04:54:08.277Z,2.15
2024-01-16T04:56:34.804Z,1.93
2024-01-16T04:59:01.906Z,2.07
2024-01-16T05:01:28.428Z,2.04
2024-01-16T05:03:55.382Z,2.06
2024-01-16T05:06:21.996Z,2.32
2024-01-16T05:08:49.198Z,2.18
2024-01-16T05:11:15.971Z,2.33
2024-01-16T05:13:42.975Z,2.04
2024-01-16T05:16:09.700Z,2.11
2024-01-16T05:18:36.686Z,1.99
2024-01-16T05:21:05.138Z,1.66
2024-01-16T05:23:32.185Z,1.51
2024-01-16T05:25:59.234Z,1.38
2024-01-16T05:28:26.089Z,1.30
2024-01-16T05:30:52.856Z,1.71
2024-01-16T05:33:19.957Z,1.66
2024-01-16T05:35:46.506Z,1.52
2024-01-16T05:38:13.284Z,1.03
2024-01-16T05:40:40.430Z,0.74
2024-01-16T05:43:07.221Z,0.59
2024-01-16T05:45:33.608Z,0.47
2024-01-16T05:48:00.715Z,0.52
2024-01-16T05:50:27.275Z,0.74
2024-01-16T05:52:54.675Z,0.57
2024-01-16T05:55:21.989Z,0.34
2024-01-16T05:57:49.041Z,0.38
2024-01-16T06:00:18.404Z,0.62
2024-01-16T06:02:45.343Z,0.30
2024-01-16T06:05:12.211Z,0.18
2024-01-16T06:07:40.320Z,0.12
2024-01-16T06:10:07.503Z,0.15
2024-01-16T06:12:34.580Z,0.58
2024-01-16T06:15:01.095Z,0.89
2024-01-16T06:17:28.072Z,0.97
2024-01-16T06:19:54.829Z,0.61
2024-01-16T06:22:21.594Z,0.60
2024-01-16T06:24:48.037Z,0.74
2024-01-16T06:27:19.436Z,0.72
2024-01-16T06:29:46.933Z,0.69
2024-01-16T06:32:13.675Z,0.58
2024-01-16T06:34:40.437Z,0.28
2024-01-16T06:37:07.497Z,0.41
2024-01-16T06:39:34.933Z,0.80
2024-01-16T06:42:02.339Z,0.51
2024-01-16T06:44:28.770Z,0.42
2024-01-16T06:46:55.894Z,0.57
2024-01-16T06:49:22.434Z,0.43
2024-01-16T06:51:49.337Z,0.40
2024-01-16T06:54:15.852Z,0.46
2024-01-16T06:56:42.789Z,0.54
2024-01-16T06:59:12.023Z,0.95
2024-01-16T07:01:39.089Z,1.08
2024-01-16T07:04:05.612Z,0.96
2024-01-16T07:06:32.583Z,1.08
2024-01-16T07:08:59.051Z,1.33
2024-01-16T07:11:25.932Z,1.26
2024-01-16T07:13:52.365Z,1.21
2024-01-16T07:16:19.074Z,1.61
2024-01-16T07:18:48.258Z,1.67
2024-01-16T07:21:22.005Z,1.84
2024-01-16T07:23:48.729Z,1.77
2024-01-16T07:26:16.938Z,1.74
2024-01-16T07:28:44.198Z,1.78
2024-01-16T07:31:12.052Z,2.17
2024-01-16T07:33:38.458Z,2.09
2024-01-16T07:36:06.705Z,2.69
2024-01-16T07:38:33.182Z,2.60
2024-01-16T07:41:00.195Z,2.33
2024-01-16T07:43:26.879Z,2.30
2024-01-16T07:45:53.771Z,2.45
2024-01-16T07:48:20.378Z,2.17
2024-01-16T07:50:47.243Z,2.26
2024-01-16T07:53:15.542Z,2.53
2024-01-16T07:55:43.285Z,2.38
2024-01-16T07:58:13.435Z,2.39
2024-01-16T08:00:41.296Z,2.38
2024-01-16T08:03:11.805Z,2.55
2024-01-16T08:05:39.999Z,2.72
2024-01-16T08:08:10.213Z,2.84
2024-01-16T08:10:37.435Z,2.95
2024-01-16T08:13:03.857Z,3.04
2024-01-16T08:15:30.654Z,2.88
2024-01-16T08:17:57.261Z,2.83
2024-01-16T08:20:24.504Z,2.66
2024-01-16T08:22:51.148Z,2.90
2024-01-16T08:25:18.124Z,3.01
2024-01-16T08:27:44.762Z,3.12
2024-01-16T08:30:12.845Z,3.22
2024-01-16T08:32:39.452Z,3.31
2024-01-16T08:35:07.065Z,3.48
2024-01-16T08:37:34.602Z,3.64
2024-01-16T08:40:03.692Z,3.56
2024-01-16T08:42:31.207Z,3.45
2024-01-16T08:44:57.973Z,3.35
2024-01-16T08:47:24.626Z,3.24
2024-01-16T08:49:51.427Z,2.92
2024-01-16T08:52:17.858Z,2.99
2024-01-16T08:54:44.838Z,3.02
2024-01-16T08:57:12.041Z,2.67
2024-01-16T08:59:41.290Z,2.90
2024-01-16T09:02:08.246Z,3.17
2024-01-16T09:04:35.255Z,3.32
2024-01-16T09:07:04.988Z,3.44
2024-01-16T09:09:31.927Z,3.60
2024-01-16T09:11:58.605Z,3.64
2024-01-16T09:14:25.425Z,3.71
2024-01-16T09:16:53.605Z,3.79
2024-01-16T09:19:20.535Z,3.66
2024-01-16T09:21:48.406Z,3.69
2024-01-16T09:24:15.118Z,3.82
2024-01-16T09:26:41.523Z,4.01
2024-01-16T09:29:10.150Z,4.27
2024-01-16T09:31:36.960Z,4.45
2024-01-16T09:34:08.262Z,4.51
2024-01-16T09:36:37.216Z,4.28
2024-01-16T09:39:08.415Z,4.37
2024-01-16T09:41:35.559Z,4.11
2024-01-16T09:44:05.471Z,4.09
2024-01-16T09:46:40.357Z,4.22
2024-01-16T09:49:07.627Z,4.40
2024-01-16T09:51:34.178Z,4.33
2024-01-16T09:54:02.439Z,4.57
2024-01-16T09:56:30.984Z,4.65
2024-01-16T09:59:06.438Z,4.65
2024-01-16T10:01:34.022Z,4.65
2024-01-16T10:04:00.925Z,4.69
2024-01-16T10:06:28.458Z,4.67
2024-01-16T10:08:55.420Z,4.57
2024-01-16T10:11:21.928Z,4.50
2024-01-16T10:13:51.631Z,4.48
2024-01-16T10:16:18.053Z,4.53
2024-01-16T10:18:45.018Z,4.47
2024-01-16T10:21:23.525Z,4.45
2024-01-16T10:23:50.895Z,4.50
2024-01-16T10:26:19.009Z,4.47
2024-01-16T10:28:45.988Z,4.54
2024-01-16T10:31:16.990Z,4.30
2024-01-16T10:33:44.067Z,4.65
2024-01-16T10:36:20.159Z,4.77
2024-01-16T10:38:47.325Z,4.89
2024-01-16T10:41:17.843Z,4.40
2024-01-16T10:43:45.665Z,4.64
2024-01-16T10:46:14.565Z,4.29
2024-01-16T10:48:43.743Z,3.64
2024-01-16T10:51:14.249Z,3.51
2024-01-16T10:53:44.530Z,3.07
2024-01-16T10:56:12.842Z,3.55
2024-01-16T10:58:42.650Z,3.47
2024-01-16T11:01:16.090Z,3.81
2024-01-16T11:03:45.952Z,3.46
2024-01-16T11:06:14.738Z,3.33
2024-01-16T11:08:42.486Z,3.42
2024-01-16T11:11:10.025Z,3.27
2024-01-16T11:13:39.208Z,3.67
2024-01-16T11:16:07.465Z,3.34
2024-01-16T11:18:38.059Z,3.07
2024-01-16T11:21:14.325Z,3.14
2024-01-16T11:23:45.659Z,2.93
2024-01-16T11:26:33.098Z,2.72
2024-01-16T11:29:01.769Z,2.48
2024-01-16T11:31:36.050Z,2.49
2024-01-16T11:34:04.368Z,2.70
2024-01-16T11:36:54.702Z,2.97
2024-01-16T11:39:30.145Z,2.94
2024-01-16T11:41:58.845Z,2.38
2024-01-16T11:44:51.280Z,2.71
2024-01-16T11:47:23.740Z,3.16
2024-01-16T11:50:07.972Z,3.32
2024-01-16T11:52:45.325Z,3.51
2024-01-16T11:55:33.277Z,3.68
2024-01-16T11:58:12.058Z,3.61
2024-01-16T12:00:42.525Z,3.79
2024-01-16T12:03:11.681Z,3.62
2024-01-16T12:05:38.922Z,3.89
2024-01-16T12:08:06.683Z,4.16
2024-01-16T12:10:34.238Z,4.21
2024-01-16T12:13:05.218Z,4.30
2024-01-16T12:15:33.487Z,4.31
2024-01-16T12:18:01.957Z,4.51
2024-01-16T12:20:35.262Z,4.30
2024-01-16T12:23:07.297Z,3.99
2024-01-16T12:26:00.820Z,4.08
2024-01-16T12:28:31.971Z,4.21
2024-01-16T12:31:02.312Z,4.18
2024-01-16T12:33:30.911Z,4.10
2024-01-16T12:36:06.826Z,4.04
2024-01-16T12:38:35.785Z,4.02
2024-01-16T12:41:09.053Z,4.08
2024-01-16T12:43:37.483Z,4.06
2024-01-16T12:46:04.375Z,4.04
2024-01-16T12:48:31.410Z,4.18
2024-01-16T12:51:02.969Z,3.90
2024-01-16T12:53:29.871Z,3.96
2024-01-16T12:56:01.342Z,3.89
2024-01-16T12:58:36.607Z,3.90
2024-01-16T13:01:33.844Z,3.74
2024-01-16T13:04:05.674Z,3.74
2024-01-16T13:06:32.886Z,3.69
2024-01-16T13:09:11.849Z,3.81
2024-01-16T13:11:55.394Z,3.75
2024-01-16T13:14:23.159Z,3.74
2024-01-16T13:16:51.624Z,4.02
2024-01-16T13:19:22.765Z,3.87
2024-01-16T13:21:50.543Z,4.07
2024-01-16T13:24:23.741Z,4.11
2024-01-16T13:26:51.154Z,3.97
2024-01-16T13:29:17.957Z,4.00
2024-01-16T13:31:45.212Z,3.88
2024-01-16T13:34:12.535Z,4.10
2024-01-16T13:36:53.860Z,4.14
2024-01-16T13:39:26.700Z,4.27
2024-01-16T13:41:54.206Z,4.20
2024-01-16T13:44:20.883Z,4.23
2024-01-16T13:46:57.487Z,4.25
2024-01-16T13:49:33.849Z,4.32
2024-01-16T13:52:00.841Z,4.42
2024-01-16T13:54:27.358Z,4.39
2024-01-16T13:57:03.160Z,4.33
2024-01-16T13:59:34.267Z,4.35
2024-01-16T14:02:03.491Z,4.36
2024-01-16T14:04:30.119Z,4.32
2024-01-16T14:07:10.512Z,4.22
2024-01-16T14:09:41.744Z,4.25
2024-01-16T14:12:08.971Z,4.16
2024-01-16T14:14:35.586Z,3.86
2024-01-16T14:17:05.621Z,4.03
2024-01-16T14:19:32.633Z,3.91
2024-01-16T14:21:59.883Z,3.89
2024-01-16T14:24:26.697Z,4.00
2024-01-16T14:26:53.769Z,3.93
2024-01-16T14:29:20.569Z,3.98
2024-01-16T14:31:49.095Z,3.86
2024-01-16T14:34:15.905Z,3.81
2024-01-16T14:36:43.101Z,3.68
2024-01-16T14:39:14.086Z,3.75
2024-01-16T14:41:41.764Z,3.72
2024-01-16T14:44:10.272Z,3.72
2024-01-16T14:46:37.895Z,3.70
2024-01-16T14:49:04.923Z,3.69
2024-01-16T14:51:33.054Z,3.68
2024-01-16T14:54:02.266Z,3.63
2024-01-16T14:56:30.845Z,3.62
2024-01-16T14:58:58.497Z,3.67
2024-01-16T15:01:26.019Z,3.67
2024-01-16T15:03:53.872Z,3.61
2024-01-16T15:06:22.950Z,3.93
2024-01-16T15:08:50.186Z,3.82
2024-01-16T15:11:18.258Z,3.89
2024-01-16T15:13:45.904Z,4.01
2024-01-16T15:16:12.855Z,3.94
2024-01-16T15:18:39.430Z,4.07
2024-01-16T15:21:06.534Z,4.00
2024-01-16T15:23:33.644Z,4.22
2024-01-16T15:26:03.669Z,4.10
2024-01-16T15:28:31.236Z,4.32
2024-01-16T15:30:58.170Z,4.67
2024-01-16T15:33:24.831Z,4.38
2024-01-16T15:35:51.718Z,4.60
2024-01-16T15:38:18.889Z,4.41
2024-01-16T15:40:46.446Z,4.41
2024-01-16T15:43:12.885Z,4.39
2024-01-16T15:45:39.691Z,4.31
2024-01-16T15:48:06.627Z,4.49
2024-01-16T15:50:33.831Z,4.40
2024-01-16T15:53:00.661Z,4.32
2024-01-16T15:55:28.357Z,4.28
2024-01-16T15:57:56.270Z,4.32
2024-01-16T16:00:23.956Z,4.30
2024-01-16T16:02:51.926Z,4.43
2024-01-16T16:05:19.135Z,4.31
2024-01-16T16:07:48.037Z,4.50
2024-01-16T16:10:15.221Z,4.53
2024-01-16T16:12:41.748Z,4.58
2024-01-16T16:15:08.729Z,4.66
2024-01-16T16:17:35.942Z,4.45
2024-01-16T16:20:04.091Z,4.58
2024-01-16T16:22:31.025Z,4.35
2024-01-16T16:24:59.720Z,4.36
2024-01-16T16:27:29.270Z,4.31
2024-01-16T16:29:58.086Z,4.29
2024-01-16T16:32:25.766Z,4.50
2024-01-16T16:34:53.829Z,4.31
2024-01-16T16:37:21.419Z,4.25
2024-01-16T16:39:48.894Z,4.33
2024-01-16T16:42:19.788Z,4.35
2024-01-16T16:44:47.619Z,4.42
2024-01-16T16:47:16.029Z,4.54
2024-01-16T16:49:43.447Z,4.40
2024-01-16T16:52:10.357Z,4.43
2024-01-16T16:54:37.355Z,4.21
2024-01-16T16:57:04.516Z,4.21
2024-01-16T16:59:31.784Z,4.15
2024-01-16T17:01:59.589Z,4.26
2024-01-16T17:04:27.009Z,4.38
2024-01-16T17:06:55.972Z,4.67
2024-01-16T17:09:23.525Z,4.52
2024-01-16T17:11:50.640Z,4.59
2024-01-16T17:14:17.929Z,4.66
2024-01-16T17:16:44.769Z,4.55
2024-01-16T17:19:12.882Z,4.74
2024-01-16T17:21:40.573Z,4.46
2024-01-16T17:24:08.046Z,4.45
2024-01-16T17:26:35.730Z,4.41
2024-01-16T17:29:02.893Z,4.40
2024-01-16T17:31:30.142Z,4.59
2024-01-16T17:33:57.756Z,4.39
2024-01-16T17:36:24.820Z,4.51
2024-01-16T17:38:56.421Z,4.46
2024-01-16T17:41:26.414Z,4.60
2024-01-16T17:43:54.337Z,4.71
2024-01-16T17:46:21.269Z,4.58
2024-01-16T17:48:48.870Z,4.58
2024-01-16T17:51:15.753Z,4.49
2024-01-16T17:53:45.280Z,4.37
2024-01-16T17:56:16.207Z,4.51
2024-01-16T17:58:43.904Z,4.52
2024-01-16T18:01:11.930Z,4.53
2024-01-16T18:03:44.968Z,4.32
2024-01-16T18:06:16.605Z,4.29
2024-01-16T18:08:43.496Z,4.12
2024-01-16T18:11:13.241Z,4.15
2024-01-16T18:13:42.489Z,4.01
2024-01-16T18:16:10.003Z,3.91
2024-01-16T18:18:41.381Z,3.76
2024-01-16T18:21:12.618Z,3.85
2024-01-16T18:23:40.956Z,3.79
2024-01-16T18:26:08.448Z,3.74
2024-01-16T18:28:35.234Z,3.75
2024-01-16T18:31:02.952Z,3.90
2024-01-16T18:33:29.957Z,3.90
2024-01-16T18:36:00.582Z,3.86
2024-01-16T18:38:28.293Z,3.76
2024-01-16T18:40:56.524Z,3.99
2024-01-16T18:43:23.193Z,3.86
2024-01-16T18:45:52.230Z,3.85
2024-01-16T18:48:19.218Z,3.78
2024-01-16T18:50:49.846Z,3.66
2024-01-16T18:53:17.179Z,3.50
2024-01-16T18:55:44.165Z,3.65
2024-01-16T18:58:13.672Z,3.69
2024-01-16T19:00:42.869Z,3.70
2024-01-16T19:03:09.969Z,3.73
2024-01-16T19:05:39.332Z,3.84
2024-01-16T19:08:07.768Z,3.88
2024-01-16T19:10:38.882Z,3.82
2024-01-16T19:13:06.202Z,3.78
2024-01-16T19:15:33.617Z,3.84
2024-01-16T19:18:00.366Z,3.88
2024-01-16T19:20:28.766Z,3.83
2024-01-16T19:22:56.589Z,3.90
2024-01-16T19:25:25.850Z,3.87
2024-01-16T19:27:52.788Z,3.84
2024-01-16T19:30:21.362Z,3.79
2024-01-16T19:32:49.519Z,3.73
2024-01-16T19:35:17.845Z,3.73
2024-01-16T19:37:45.043Z,3.91
2024-01-16T19:40:12.686Z,3.93
2024-01-16T19:42:39.711Z,3.98
2024-01-16T19:45:10.220Z,4.06
2024-01-16T19:47:40.045Z,4.13
2024-01-16T19:50:19.278Z,4.14
2024-01-16T19:52:50.867Z,4.05
2024-01-16T19:55:19.851Z,4.06
2024-01-16T19:57:47.524Z,4.15
2024-01-16T20:00:15.103Z,4.04
2024-01-16T20:02:43.283Z,3.91
2024-01-16T20:05:15.594Z,3.82
2024-01-16T20:07:43.464Z,3.78
2024-01-16T20:10:14.218Z,3.79
2024-01-16T20:12:45.112Z,3.99
2024-01-16T20:15:15.948Z,3.98
2024-01-16T20:17:43.396Z,3.97
2024-01-16T20:20:11.038Z,4.10
2024-01-16T20:22:38.030Z,4.27
2024-01-16T20:25:05.400Z,4.46
2024-01-16T20:27:32.333Z,4.49
2024-01-16T20:29:59.222Z,4.57
2024-01-16T20:32:25.935Z,4.52
2024-01-16T20:34:53.874Z,4.59
2024-01-16T20:37:20.862Z,4.56
2024-01-16T20:39:48.242Z,4.64
2024-01-16T20:42:15.314Z,4.44
2024-01-16T20:44:42.319Z,4.35
2024-01-16T20:47:11.206Z,4.45
2024-01-16T20:49:38.419Z,4.32
2024-01-16T20:52:05.405Z,4.43
2024-01-16T20:54:32.446Z,4.37
2024-01-16T20:56:59.324Z,4.31
2024-01-16T20:59:27.457Z,4.42
2024-01-16T21:01:54.733Z,4.35
2024-01-16T21:04:21.543Z,4.02
2024-01-16T21:06:49.134Z,4.17
2024-01-16T21:09:16.167Z,4.16
2024-01-16T21:11:43.922Z,4.10
2024-01-16T21:14:11.321Z,3.97
2024-01-16T21:16:37.851Z,3.99
2024-01-16T21:19:08.398Z,3.93
2024-01-16T21:21:35.736Z,4.04
2024-01-16T21:24:04.739Z,4.11
2024-01-16T21:26:31.496Z,4.26
2024-01-16T21:28:58.359Z,4.32
2024-01-16T21:31:25.474Z,4.35
2024-01-16T21:33:53.568Z,4.28
2024-01-16T21:36:20.543Z,4.44
2024-01-16T21:38:47.961Z,4.39
2024-01-16T21:41:14.583Z,4.38
2024-01-16T21:43:41.505Z,4.31
2024-01-16T21:46:07.948Z,4.40
2024-01-16T21:48:35.677Z,4.28
2024-01-16T21:51:02.617Z,4.36
2024-01-16T21:53:29.513Z,4.43
2024-01-16T21:55:56.173Z,4.54
2024-01-16T21:58:22.863Z,4.46
2024-01-16T22:00:49.894Z,4.44
2024-01-16T22:03:16.735Z,4.31
2024-01-16T22:05:43.508Z,4.20
2024-01-16T22:08:10.303Z,4.34
2024-01-16T22:10:42.184Z,4.14
2024-01-16T22:13:09.730Z,4.45
2024-01-16T22:15:36.185Z,4.50
2024-01-16T22:18:15.698Z,4.62
2024-01-16T22:20:42.299Z,4.71
2024-01-16T22:23:09.719Z,4.55
2024-01-16T22:25:36.729Z,4.59
2024-01-16T22:28:04.011Z,4.40
2024-01-16T22:30:30.613Z,4.39
2024-01-16T22:33:00.608Z,4.35
2024-01-16T22:35:27.450Z,4.28
2024-01-16T22:37:54.551Z,4.34
2024-01-16T22:40:21.149Z,4.27
2024-01-16T22:42:47.956Z,4.23
2024-01-16T22:45:16.634Z,4.31
2024-01-16T22:47:44.026Z,4.37
2024-01-16T22:50:11.814Z,4.42
2024-01-16T22:52:39.778Z,4.28
2024-01-16T22:55:06.389Z,4.32
2024-01-16T22:57:33.324Z,4.23
2024-01-16T23:00:00.665Z,4.25
2024-01-16T23:02:29.312Z,4.15
2024-01-16T23:04:56.066Z,4.13
2024-01-16T23:07:22.543Z,4.12
2024-01-16T23:09:49.341Z,4.12
2024-01-16T23:12:16.209Z,4.01
2024-01-16T23:14:43.680Z,3.91
2024-01-16T23:17:10.134Z,4.05
2024-01-16T23:19:37.073Z,4.03
2024-01-16T23:22:04.516Z,4.06
2024-01-16T23:24:31.460Z,4.01
2024-01-16T23:26:58.050Z,4.14
2024-01-16T23:29:24.814Z,4.03
2024-01-16T23:31:51.343Z,4.03
2024-01-16T23:34:18.609Z,4.04
2024-01-16T23:36:45.109Z,4.14
2024-01-16T23:39:12.007Z,4.08
2024-01-16T23:41:38.668Z,4.11
2024-01-16T23:44:05.391Z,4.14
2024-01-16T23:46:35.307Z,4.19
2024-01-16T23:49:02.394Z,4.21
2024-01-16T23:51:31.596Z,4.10
2024-01-16T23:53:58.535Z,4.14
2024-01-16T23:56:25.183Z,3.94
2024-01-16T23:58:51.985Z,4.07
